createdAt,value
2022-12-22T00:01:57.161Z,100571.88
2022-12-22T00:04:43.134Z,100581.53
2022-12-22T00:07:30.557Z,100553.56
2022-12-22T00:10:16.378Z,100573.75
2022-12-22T00:13:02.441Z,100578.03
2022-12-22T00:15:52.617Z,100531.66
2022-12-22T00:18:39.185Z,100554.53
2022-12-22T00:21:25.030Z,100560.72
2022-12-22T00:24:12.129Z,100559.03
2022-12-22T00:26:58.065Z,100551.22
2022-12-22T00:29:45.913Z,100547.66
2022-12-22T00:32:32.738Z,100545.94
2022-12-22T00:35:18.820Z,100538.09
2022-12-22T00:38:04.906Z,100501.25
2022-12-22T00:40:52.413Z,100523.16
2022-12-22T00:43:38.272Z,100516.13
2022-12-22T00:46:24.069Z,100529.28
2022-12-22T00:49:10.003Z,100524.94
2022-12-22T00:51:56.034Z,100500.38
2022-12-22T00:54:42.547Z,100461.81
2022-12-22T00:57:37.215Z,100510.78
2022-12-22T01:00:25.020Z,100508.22
2022-12-22T01:03:11.092Z,100500.38
2022-12-22T01:05:57.286Z,100502.16
2022-12-22T01:08:43.240Z,100502.97
2022-12-22T01:11:29.137Z,100501.25
2022-12-22T01:14:16.239Z,100464.44
2022-12-22T01:17:02.109Z,100495.19
2022-12-22T01:19:48.297Z,100492.63
2022-12-22T01:22:39.348Z,100497.84
2022-12-22T01:25:31.773Z,100487.41
2022-12-22T01:28:17.512Z,100482.19
2022-12-22T01:31:05.057Z,100483.91
2022-12-22T01:33:51.023Z,100479.50
2022-12-22T01:36:36.963Z,100478.63
2022-12-22T01:39:22.697Z,100479.56
2022-12-22T01:42:08.723Z,100476.09
2022-12-22T01:44:54.510Z,100467.31
2022-12-22T01:47:59.657Z,100455.09
2022-12-22T01:50:50.149Z,100447.25
2022-12-22T01:53:41.435Z,100435.88
2022-12-22T01:56:27.894Z,100464.78
2022-12-22T01:59:18.080Z,100449.84
2022-12-22T02:02:04.474Z,100461.25
2022-12-22T02:05:06.396Z,100449.06
2022-12-22T02:08:15.246Z,100407.09
2022-12-22T02:11:31.981Z,100445.63
2022-12-22T02:14:30.765Z,100438.69
2022-12-22T02:17:29.989Z,100445.69
2022-12-22T02:20:44.323Z,100448.31
2022-12-22T02:23:37.810Z,100429.06
2022-12-22T02:26:42.897Z,100430.84
2022-12-22T02:29:31.127Z,100433.47
2022-12-22T02:32:17.492Z,100423.84
2022-12-22T02:35:03.467Z,100421.22
2022-12-22T02:38:03.674Z,100421.22
2022-12-22T02:41:00.797Z,100430.84
2022-12-22T02:44:10.387Z,100430.88
2022-12-22T02:47:03.528Z,100423.03
2022-12-22T02:49:57.804Z,100425.63
2022-12-22T02:52:50.344Z,100423.00
2022-12-22T02:55:36.381Z,100419.53
2022-12-22T02:58:22.519Z,100412.50
2022-12-22T03:01:10.175Z,100380.94
2022-12-22T03:03:56.194Z,100410.69
2022-12-22T03:06:42.254Z,100402.00
2022-12-22T03:09:28.120Z,100395.91
2022-12-22T03:12:13.727Z,100386.25
2022-12-22T03:14:59.648Z,100373.19
2022-12-22T03:17:46.641Z,100367.06
2022-12-22T03:20:32.283Z,100339.94
2022-12-22T03:23:23.827Z,100342.59
2022-12-22T03:25:53.202Z,100347.81
2022-12-22T03:28:23.250Z,100353.94
2022-12-22T03:30:57.923Z,100340.81
2022-12-22T03:33:28.763Z,100332.09
2022-12-22T03:35:57.135Z,100353.06
2022-12-22T03:38:26.104Z,100348.69
2022-12-22T03:40:54.771Z,100346.94
2022-12-22T03:43:40.661Z,100346.97
2022-12-22T03:46:30.573Z,100324.22
2022-12-22T03:49:12.747Z,100342.56
2022-12-22T03:51:44.616Z,100339.94
2022-12-22T03:54:15.293Z,100356.53
2022-12-22T03:56:44.247Z,100347.81
2022-12-22T03:59:12.715Z,100359.19
2022-12-22T04:01:44.082Z,100357.44
2022-12-22T04:04:15.840Z,100361.81
2022-12-22T04:06:44.619Z,100356.56
2022-12-22T04:09:13.736Z,100318.94
2022-12-22T04:12:08.207Z,100351.34
2022-12-22T04:14:36.970Z,100356.59
2022-12-22T04:17:06.146Z,100367.94
2022-12-22T04:19:35.866Z,100360.06
2022-12-22T04:22:04.278Z,100334.69
2022-12-22T04:24:32.636Z,100368.81
2022-12-22T04:27:01.008Z,100371.44
2022-12-22T04:29:29.322Z,100383.69
2022-12-22T04:31:57.640Z,100343.44
2022-12-22T04:34:25.947Z,100371.44
2022-12-22T04:37:00.492Z,100375.81
2022-12-22T04:39:32.822Z,100377.56
2022-12-22T04:42:01.057Z,100377.56
2022-12-22T04:44:29.486Z,100385.41
2022-12-22T04:46:57.746Z,100369.69
2022-12-22T04:49:26.042Z,100379.28
2022-12-22T04:51:55.733Z,100367.06
2022-12-22T04:54:24.014Z,100377.56
2022-12-22T04:56:52.654Z,100361.78
2022-12-22T04:59:21.027Z,100387.16
2022-12-22T05:01:49.477Z,100388.00
2022-12-22T05:04:23.477Z,100381.81
2022-12-22T05:06:52.319Z,100372.19
2022-12-22T05:09:22.085Z,100394.94
2022-12-22T05:11:50.378Z,100361.69
2022-12-22T05:14:18.755Z,100399.31
2022-12-22T05:16:47.187Z,100395.84
2022-12-22T05:19:15.580Z,100362.50
2022-12-22T05:21:43.884Z,100398.38
2022-12-22T05:24:12.124Z,100406.25
2022-12-22T05:26:41.821Z,100415.00
2022-12-22T05:29:10.138Z,100414.97
2022-12-22T05:31:41.844Z,100423.66
2022-12-22T05:34:15.185Z,100425.47
2022-12-22T05:36:43.459Z,100409.59
2022-12-22T05:39:11.700Z,100436.75
2022-12-22T05:41:41.334Z,100449.69
2022-12-22T05:44:09.722Z,100452.03
2022-12-22T05:46:38.231Z,100466.13
2022-12-22T05:49:06.574Z,100473.84
2022-12-22T05:51:34.848Z,100468.41
2022-12-22T05:54:03.141Z,100479.84
2022-12-22T05:56:31.404Z,100481.63
2022-12-22T05:59:01.178Z,100482.31
2022-12-22T06:01:29.631Z,100463.78
2022-12-22T06:04:00.576Z,100471.63
2022-12-22T06:06:29.501Z,100498.00
2022-12-22T06:08:57.834Z,100498.91
2022-12-22T06:11:26.155Z,100497.91
2022-12-22T06:13:54.439Z,100487.63
2022-12-22T06:16:25.047Z,100484.13
2022-12-22T06:18:53.414Z,100483.38
2022-12-22T06:21:21.743Z,100455.28
2022-12-22T06:23:50.021Z,100493.88
2022-12-22T06:26:18.299Z,100496.38
2022-12-22T06:28:46.628Z,100505.13
2022-12-22T06:31:15.019Z,100511.31
2022-12-22T06:33:45.475Z,100515.66
2022-12-22T06:36:13.875Z,100515.72
2022-12-22T06:38:42.096Z,100518.28
2022-12-22T06:41:10.604Z,100505.13
2022-12-22T06:43:37.994Z,100506.78
2022-12-22T06:46:06.625Z,100527.78
2022-12-22T06:48:34.927Z,100530.31
2022-12-22T06:51:04.763Z,100540.09
2022-12-22T06:53:33.107Z,100548.78
2022-12-22T06:56:01.403Z,100546.00
2022-12-22T06:58:29.747Z,100550.50
2022-12-22T07:00:58.237Z,100533.00
2022-12-22T07:03:26.719Z,100561.72
2022-12-22T07:05:55.305Z,100560.88
2022-12-22T07:08:25.024Z,100569.47
2022-12-22T07:10:59.220Z,100573.84
2022-12-22T07:13:30.061Z,100571.88
2022-12-22T07:16:01.047Z,100584.19
2022-12-22T07:18:32.516Z,100570.19
2022-12-22T07:21:02.913Z,100550.69
2022-12-22T07:23:33.026Z,100580.06
2022-12-22T07:26:02.245Z,100556.13
2022-12-22T07:28:33.235Z,100583.50
2022-12-22T07:31:01.880Z,100586.97
2022-12-22T07:33:30.412Z,100595.66
2022-12-22T07:36:09.018Z,100598.25
2022-12-22T07:38:42.361Z,100558.63
2022-12-22T07:41:26.220Z,100614.72
2022-12-22T07:43:55.350Z,100623.31
2022-12-22T07:46:25.504Z,100593.34
2022-12-22T07:49:11.232Z,100613.72
2022-12-22T07:51:42.285Z,100630.06
2022-12-22T07:54:15.260Z,100624.84
2022-12-22T07:56:44.831Z,100607.31
2022-12-22T07:59:13.794Z,100632.84
2022-12-22T08:01:42.504Z,100629.47
2022-12-22T08:04:11.543Z,100638.03
2022-12-22T08:06:40.446Z,100642.41
2022-12-22T08:09:14.319Z,100627.38
2022-12-22T08:11:42.678Z,100637.88
2022-12-22T08:14:11.122Z,100667.63
2022-12-22T08:16:39.402Z,100662.06
2022-12-22T08:19:07.793Z,100682.38
2022-12-22T08:21:36.278Z,100691.91
2022-12-22T08:24:04.835Z,100699.50
2022-12-22T08:26:39.353Z,100692.72
2022-12-22T08:29:13.026Z,100686.81
2022-12-22T08:31:42.623Z,100709.41
2022-12-22T08:34:15.101Z,100725.13
2022-12-22T08:36:47.947Z,100723.28
2022-12-22T08:39:17.057Z,100731.19
2022-12-22T08:41:52.896Z,100726.78
2022-12-22T08:44:24.180Z,100742.03
2022-12-22T08:46:53.879Z,100750.47
2022-12-22T08:49:22.711Z,100706.31
2022-12-22T08:51:51.808Z,100718.59
2022-12-22T08:54:20.891Z,100763.38
2022-12-22T08:56:51.368Z,100756.56
2022-12-22T08:59:19.859Z,100760.16
2022-12-22T09:01:50.873Z,100743.31
2022-12-22T09:04:22.341Z,100731.72
2022-12-22T09:06:53.514Z,100700.88
2022-12-22T09:09:22.107Z,100741.31
2022-12-22T09:11:51.937Z,100756.84
2022-12-22T09:14:20.434Z,100750.59
2022-12-22T09:16:48.883Z,100765.53
2022-12-22T09:19:17.377Z,100748.63
2022-12-22T09:21:46.223Z,100759.53
2022-12-22T09:24:15.002Z,100778.63
2022-12-22T09:26:43.800Z,100749.69
2022-12-22T09:29:15.362Z,100785.47
2022-12-22T09:31:44.141Z,100768.09
2022-12-22T09:34:17.488Z,100794.44
2022-12-22T09:36:47.749Z,100780.75
2022-12-22T09:39:17.059Z,100804.22
2022-12-22T09:41:49.591Z,100782.09
2022-12-22T09:44:26.387Z,100797.88
2022-12-22T09:46:57.482Z,100791.00
2022-12-22T09:49:26.592Z,100752.88
2022-12-22T09:52:01.109Z,100805.59
2022-12-22T09:54:31.089Z,100808.22
2022-12-22T09:56:59.898Z,100799.69
2022-12-22T09:59:31.273Z,100818.50
2022-12-22T10:02:16.791Z,100822.06
2022-12-22T10:05:11.933Z,100807.47
2022-12-22T10:07:42.794Z,100823.25
2022-12-22T10:10:25.404Z,100814.09
2022-12-22T10:12:55.548Z,100811.13
2022-12-22T10:15:26.203Z,100817.44
2022-12-22T10:18:08.977Z,100808.56
2022-12-22T10:20:39.873Z,100821.78
2022-12-22T10:23:18.930Z,100820.41
2022-12-22T10:29:01.966Z,100770.16
2022-12-22T10:31:34.082Z,100815.13
2022-12-22T10:34:14.149Z,100829.84
2022-12-22T10:36:47.835Z,100788.53
2022-12-22T10:39:23.443Z,100823.63
2022-12-22T10:41:56.297Z,100811.03
2022-12-22T10:44:28.782Z,100830.19
2022-12-22T10:47:01.357Z,100842.66
2022-12-22T10:52:14.184Z,100850.47
2022-12-22T10:54:44.679Z,100855.97
2022-12-22T10:57:30.104Z,100832.94
2022-12-22T11:00:00.638Z,100851.66
2022-12-22T11:02:38.047Z,100837.97
2022-12-22T11:05:09.884Z,100852.16
2022-12-22T11:07:40.205Z,100862.00
2022-12-22T11:10:25.838Z,100866.69
2022-12-22T11:13:21.340Z,100867.41
2022-12-22T11:16:00.154Z,100867.78
2022-12-22T11:18:48.747Z,100845.03
2022-12-22T11:21:24.530Z,100873.59
2022-12-22T11:24:02.836Z,100859.97
2022-12-22T11:26:43.206Z,100855.22
2022-12-22T11:29:34.327Z,100877.81
2022-12-22T11:32:25.562Z,100867.81
2022-12-22T11:35:03.208Z,100837.25
2022-12-22T11:37:43.400Z,100874.44
2022-12-22T11:40:28.897Z,100878.28
2022-12-22T11:43:21.724Z,100874.09
2022-12-22T11:46:03.426Z,100875.97
2022-12-22T11:49:29.023Z,100862.19
2022-12-22T11:52:14.624Z,100864.88
2022-12-22T11:55:01.078Z,100843.41
2022-12-22T11:57:40.095Z,100857.03
2022-12-22T12:00:11.608Z,100853.69
2022-12-22T12:03:16.793Z,100835.38
2022-12-22T12:06:14.537Z,100834.53
2022-12-22T12:09:03.241Z,100831.56
2022-12-22T12:11:40.332Z,100829.22
2022-12-22T12:14:23.188Z,100816.00
2022-12-22T12:16:59.863Z,100821.53
2022-12-22T12:20:04.149Z,100819.66
2022-12-22T12:22:55.322Z,100819.84
2022-12-22T12:25:32.920Z,100796.31
2022-12-22T12:28:25.137Z,100804.34
2022-12-22T12:30:58.583Z,100799.81
2022-12-22T12:33:40.034Z,100805.72
2022-12-22T12:36:15.645Z,100801.50
2022-12-22T12:39:11.921Z,100786.75
2022-12-22T12:41:55.299Z,100800.84
2022-12-22T12:44:29.170Z,100786.97
2022-12-22T12:47:24.763Z,100786.91
2022-12-22T12:50:30.723Z,100789.50
2022-12-22T12:53:17.579Z,100775.53
2022-12-22T12:56:02.533Z,100786.38
2022-12-22T12:58:57.957Z,100741.44
2022-12-22T13:02:01.074Z,100770.72
2022-12-22T13:05:03.068Z,100776.16
2022-12-22T13:08:24.151Z,100783.84
2022-12-22T13:12:10.513Z,100770.81
2022-12-22T13:15:01.379Z,100729.81
2022-12-22T13:17:49.020Z,100779.28
2022-12-22T13:20:28.879Z,100746.97
2022-12-22T13:23:00.277Z,100735.72
2022-12-22T13:25:42.626Z,100757.91
2022-12-22T13:28:17.202Z,100751.03
2022-12-22T13:30:50.371Z,100758.81
2022-12-22T13:33:25.035Z,100755.63
2022-12-22T13:35:58.863Z,100748.53
2022-12-22T13:38:30.488Z,100715.41
2022-12-22T13:41:00.935Z,100717.31
2022-12-22T13:43:31.777Z,100731.50
2022-12-22T13:46:04.281Z,100732.34
2022-12-22T13:48:44.799Z,100711.47
2022-12-22T13:51:21.037Z,100696.59
2022-12-22T13:54:10.305Z,100696.41
2022-12-22T13:56:45.508Z,100712.19
2022-12-22T13:59:28.980Z,100714.03
2022-12-22T14:02:03.076Z,100684.09
2022-12-22T14:04:32.086Z,100686.81
2022-12-22T14:07:12.724Z,100672.81
2022-12-22T14:09:45.874Z,100665.59
2022-12-22T14:12:18.544Z,100699.03
2022-12-22T14:14:49.714Z,100657.06
2022-12-22T14:17:26.676Z,100665.00
2022-12-22T14:19:58.337Z,100685.28
2022-12-22T14:22:30.486Z,100661.72
2022-12-22T14:25:04.991Z,100672.19
2022-12-22T14:27:45.087Z,100680.13
2022-12-22T14:30:19.516Z,100656.44
2022-12-22T14:32:55.221Z,100671.31
2022-12-22T14:35:31.682Z,100645.91
2022-12-22T14:38:21.513Z,100663.47
2022-12-22T14:40:56.440Z,100666.91
2022-12-22T14:43:31.391Z,100660.63
2022-12-22T14:46:07.814Z,100649.28
2022-12-22T14:48:41.511Z,100661.66
2022-12-22T14:51:10.150Z,100638.91
2022-12-22T14:53:46.464Z,100655.59
2022-12-22T14:56:17.822Z,100655.53
2022-12-22T14:58:48.339Z,100634.41
2022-12-22T15:01:21.962Z,100656.44
2022-12-22T15:04:06.864Z,100648.44
2022-12-22T15:06:40.016Z,100649.94
2022-12-22T15:12:18.859Z,100632.59
2022-12-22T15:14:49.125Z,100633.41
2022-12-22T15:17:23.812Z,100597.47
2022-12-22T15:19:58.822Z,100628.19
2022-12-22T15:22:27.240Z,100634.38
2022-12-22T15:24:55.606Z,100628.19
2022-12-22T15:27:23.958Z,100622.19
2022-12-22T15:29:52.239Z,100616.00
2022-12-22T15:32:20.628Z,100607.16
2022-12-22T15:34:49.001Z,100608.03
2022-12-22T15:37:18.826Z,100613.28
2022-12-22T15:39:47.479Z,100607.19
2022-12-22T15:42:15.778Z,100600.19
2022-12-22T15:44:44.142Z,100605.41
2022-12-22T15:47:13.689Z,100601.09
2022-12-22T15:49:42.139Z,100597.53
2022-12-22T15:52:14.682Z,100595.91
2022-12-22T15:54:44.715Z,100601.13
2022-12-22T15:57:15.389Z,100590.63
2022-12-22T15:59:43.844Z,100589.56
2022-12-22T16:02:13.859Z,100573.06
2022-12-22T16:04:42.621Z,100588.84
2022-12-22T16:07:13.288Z,100578.44
2022-12-22T16:09:47.067Z,100576.75
2022-12-22T16:12:18.624Z,100574.09
2022-12-22T16:14:51.547Z,100577.63
2022-12-22T16:17:22.839Z,100570.53
2022-12-22T16:19:51.453Z,100573.25
2022-12-22T16:22:30.658Z,100550.50
2022-12-22T16:25:03.025Z,100558.56
2022-12-22T16:27:32.200Z,100552.38
2022-12-22T16:30:00.551Z,100516.47
2022-12-22T16:32:32.028Z,100549.88
2022-12-22T16:35:15.180Z,100534.09
2022-12-22T16:37:43.702Z,100545.59
2022-12-22T16:40:14.220Z,100536.00
2022-12-22T16:45:37.989Z,100513.94
2022-12-22T16:48:13.049Z,100485.97
2022-12-22T16:50:47.922Z,100514.03
2022-12-22T16:53:16.730Z,100525.47
2022-12-22T16:55:46.580Z,100522.03
2022-12-22T16:58:14.877Z,100518.53
2022-12-22T17:00:45.840Z,100497.41
2022-12-22T17:03:17.363Z,100500.97
2022-12-22T17:05:49.644Z,100508.03
2022-12-22T17:08:23.650Z,100513.34
2022-12-22T17:10:55.251Z,100511.56
2022-12-22T17:13:24.076Z,100495.69
2022-12-22T17:15:52.401Z,100486.88
2022-12-22T17:18:23.147Z,100494.91
2022-12-22T17:20:53.875Z,100496.69
2022-12-22T17:23:32.768Z,100493.19
2022-12-22T17:26:06.715Z,100492.41
2022-12-22T17:28:36.684Z,100479.94
2022-12-22T17:31:05.310Z,100486.09
2022-12-22T17:33:33.639Z,100494.84
2022-12-22T17:36:02.669Z,100486.13
2022-12-22T17:38:31.068Z,100480.09
2022-12-22T17:41:00.975Z,100481.03
2022-12-22T17:43:30.690Z,100488.16
2022-12-22T17:45:58.939Z,100478.41
2022-12-22T17:48:27.234Z,100477.63
2022-12-22T17:50:55.723Z,100478.53
2022-12-22T17:53:24.096Z,100471.59
2022-12-22T17:56:09.322Z,100476.00
2022-12-22T17:58:39.417Z,100473.47
2022-12-22T18:01:07.979Z,100465.53
2022-12-22T18:03:36.405Z,100462.03
2022-12-22T18:06:05.580Z,100454.16
2022-12-22T18:08:33.944Z,100458.56
2022-12-22T18:11:03.279Z,100411.34
2022-12-22T18:13:31.709Z,100422.81
2022-12-22T18:16:01.434Z,100449.00
2022-12-22T18:18:29.936Z,100441.19
2022-12-22T18:21:06.451Z,100413.19
2022-12-22T18:23:37.567Z,100447.28
2022-12-22T18:26:08.378Z,100442.06
2022-12-22T18:28:37.379Z,100392.16
2022-12-22T18:31:07.511Z,100442.00
2022-12-22T18:33:35.976Z,100426.16
2022-12-22T18:36:04.458Z,100446.25
2022-12-22T18:38:36.172Z,100449.81
2022-12-22T18:41:04.783Z,100461.19
2022-12-22T18:43:33.095Z,100460.38
2022-12-22T18:46:01.568Z,100451.63
2022-12-22T18:48:31.244Z,100458.56
2022-12-22T18:50:59.685Z,100449.06
2022-12-22T18:53:30.688Z,100424.59
2022-12-22T18:55:59.993Z,100447.31
2022-12-22T18:58:29.332Z,100458.69
2022-12-22T19:00:58.236Z,100456.03
2022-12-22T19:03:30.889Z,100455.94
2022-12-22T19:05:59.893Z,100426.25
2022-12-22T19:08:31.235Z,100420.13
2022-12-22T19:11:04.672Z,100397.34
2022-12-22T19:13:36.224Z,100449.00
2022-12-22T19:16:05.635Z,100406.81
2022-12-22T19:18:35.404Z,100455.09
2022-12-22T19:21:03.772Z,100462.88
2022-12-22T19:23:32.051Z,100454.97
2022-12-22T19:26:08.460Z,100432.13
2022-12-22T19:28:41.363Z,100455.78
2022-12-22T19:31:17.168Z,100448.78
2022-12-22T19:33:47.166Z,100459.31
2022-12-22T19:36:19.756Z,100440.94
2022-12-22T19:38:50.850Z,100458.47
2022-12-22T19:41:33.792Z,100433.06
2022-12-22T19:44:02.450Z,100429.56
2022-12-22T19:46:35.065Z,100446.22
2022-12-22T19:49:04.819Z,100458.47
2022-12-22T19:51:33.100Z,100454.97
2022-12-22T19:54:01.444Z,100453.31
2022-12-22T19:56:30.926Z,100462.13
2022-12-22T19:59:01.895Z,100460.34
2022-12-22T20:01:30.468Z,100462.03
2022-12-22T20:03:58.939Z,100453.28
2022-12-22T20:06:28.589Z,100459.41
2022-12-22T20:09:01.578Z,100445.38
2022-12-22T20:11:30.263Z,100451.50
2022-12-22T20:13:58.636Z,100455.91
2022-12-22T20:16:27.004Z,100455.84
2022-12-22T20:18:55.314Z,100460.25
2022-12-22T20:21:30.517Z,100462.84
2022-12-22T20:24:01.477Z,100463.75
2022-12-22T20:26:29.916Z,100448.84
2022-12-22T20:28:58.326Z,100455.06
2022-12-22T20:31:27.522Z,100406.88
2022-12-22T20:33:55.917Z,100458.56
2022-12-22T20:36:30.034Z,100421.75
2022-12-22T20:39:01.257Z,100428.81
2022-12-22T20:41:29.665Z,100448.03
2022-12-22T20:43:57.932Z,100459.34
2022-12-22T20:46:29.940Z,100458.47
2022-12-22T20:49:01.624Z,100441.91
2022-12-22T20:51:34.323Z,100434.91
2022-12-22T20:54:02.843Z,100467.25
2022-12-22T20:56:34.027Z,100464.63
2022-12-22T20:59:13.065Z,100463.75
2022-12-22T21:01:41.567Z,100434.06
2022-12-22T21:04:10.123Z,100465.63
2022-12-22T21:06:43.901Z,100437.56
2022-12-22T21:09:13.566Z,100457.72
2022-12-22T21:11:41.834Z,100461.13
2022-12-22T21:14:11.663Z,100447.19
2022-12-22T21:16:41.305Z,100446.31
2022-12-22T21:19:16.202Z,100413.91
2022-12-22T21:21:46.011Z,100457.75
2022-12-22T21:24:14.524Z,100465.66
2022-12-22T21:26:48.122Z,100468.19
2022-12-22T21:29:22.386Z,100474.31
2022-12-22T21:31:50.740Z,100476.03
2022-12-22T21:34:20.531Z,100442.00
2022-12-22T21:36:57.248Z,100435.88
2022-12-22T21:39:31.432Z,100470.81
2022-12-22T21:42:04.622Z,100459.50
2022-12-22T21:44:36.413Z,100441.09
2022-12-22T21:47:05.347Z,100458.56
2022-12-22T21:49:34.894Z,100459.50
2022-12-22T21:52:04.787Z,100462.16
2022-12-22T21:54:33.101Z,100477.75
2022-12-22T21:57:01.469Z,100472.50
2022-12-22T21:59:29.932Z,100481.19
2022-12-22T22:01:58.438Z,100482.19
2022-12-22T22:04:27.249Z,100482.97
2022-12-22T22:06:55.793Z,100464.59
2022-12-22T22:09:25.504Z,100473.34
2022-12-22T22:12:11.244Z,100488.22
2022-12-22T22:14:39.824Z,100491.75
2022-12-22T22:17:08.103Z,100487.41
2022-12-22T22:19:36.650Z,100488.25
2022-12-22T22:22:05.018Z,100501.34
2022-12-22T22:24:34.837Z,100500.53
2022-12-22T22:27:03.217Z,100501.34
2022-12-22T22:29:31.540Z,100489.09
2022-12-22T22:31:59.883Z,100504.84
2022-12-22T22:34:28.161Z,100501.31
2022-12-22T22:36:56.641Z,100502.13
2022-12-22T22:39:25.617Z,100509.06
2022-12-22T22:41:55.315Z,100506.38
2022-12-22T22:44:23.855Z,100516.03
2022-12-22T22:46:52.217Z,100510.88
2022-12-22T22:49:26.192Z,100504.69
2022-12-22T22:51:56.594Z,100506.50
2022-12-22T22:54:25.161Z,100505.66
2022-12-22T22:56:55.329Z,100500.31
2022-12-22T22:59:26.007Z,100503.81
2022-12-22T23:01:54.355Z,100489.06
2022-12-22T23:04:22.808Z,100520.47
2022-12-22T23:06:51.224Z,100507.31
2022-12-22T23:09:19.811Z,100514.34
2022-12-22T23:11:48.075Z,100515.19
2022-12-22T23:14:17.842Z,100492.41
2022-12-22T23:16:46.293Z,100508.22
2022-12-22T23:19:14.975Z,100514.34
2022-12-22T23:21:44.907Z,100470.66
2022-12-22T23:24:13.482Z,100489.00
2022-12-22T23:26:41.849Z,100506.44
2022-12-22T23:29:10.275Z,100508.28
2022-12-22T23:31:39.956Z,100506.50
2022-12-22T23:34:08.317Z,100471.47
2022-12-22T23:36:36.663Z,100494.22
2022-12-22T23:39:05.886Z,100496.81
2022-12-22T23:41:34.592Z,100479.38
2022-12-22T23:44:02.891Z,100501.31
2022-12-22T23:46:31.237Z,100503.00
2022-12-22T23:49:00.975Z,100510.00
2022-12-22T23:51:30.729Z,100511.78
2022-12-22T23:54:01.467Z,100510.00
2022-12-22T23:56:30.559Z,100474.91
2022-12-22T23:58:59.513Z,100505.56
